logo dgac
Martes 21 de Septiembre del 2021
Buscar por aerodromo o helipuerto
Ingrese nombre de aeródromo, localidad o designador OACI:
TAF: TAF SCPQ 211023Z 2112/2200 18007KT CAVOK TN03/2112Z TX16/2119Z
TAF del 21/09/2021 a las 10:23 UTC
Para mayor información visite www.meteochile.cl
Período de validez: desde el 21 a las 12:00 UTC hasta el 22 a las 00:00 UTC
Viento: dirección 180 grados, velocidad 7 nudos
Visibilidad: 10 km o más,
    sin nubes bajo los 5.000 pies o bajo del MSA (Mínimo de Seguridad del Aeródromo),
    sin cumulonimbus, y sin fenómenos de tiempo significativo en el aeródromo o alrededores
Temperatura mínima: 3ºC el 21 a las 12:00 UTC
Temperatura máxima: 16ºC el 21 a las 19:00 UTC